Terminal Aerodrome Forecast
Issued by NWS

Home | Current Version | Previous Version | Text Only | Print | Product List | Glossary On
Versions: 1 2 3 4 5 6 7 8 9 10 11 12 13 14 15 16 17 18 19
000
FTUS46 KSEW 211726
TAFBFI
TAF
KBFI 211726Z 2118/2218 26004KT P6SM SCT008 OVC015
      TEMPO 2118/2119 VRB03KT P6SM BKN008 OVC015
     FM211900 33004KT P6SM SCT015 BKN028 OVC040
     FM212100 35004KT P6SM SCT025 BKN040
     FM220000 36005KT P6SM SCT050
     FM220400 VRB03KT P6SM SCT200
     FM221200 VRB03KT P6SM BCFG FEW005 SCT200=

USA.gov is the U.S. government's official web portal to all federal, state and local government web resources and services.